Time;durP1;ratioP1;P1;durP2;ratioP2;P2;SDS_P1;SDS_P2;PMS_P1;PMS_P2;Temp;Humidity;BMP_temperature;BMP_pressure;BME280_temperature;BME280_humidity;BME280_pressure;Samples;Min_cycle;Max_cycle;Signal;HPM_P1;HPM_P2
2021/09/03 00:00:08;;;;;;;16.48;4.83;;;;;;;12.79;60.69;101472.73;1694546;82;25931;-63
2021/09/03 00:02:38;;;;;;;18.37;5.25;;;;;;;12.70;60.66;101469.05;1724088;81;27567;-64
2021/09/03 00:05:09;;;;;;;15.03;5.45;;;;;;;12.65;60.75;101469.23;1724891;81;25801;-63
2021/09/03 00:07:35;;;;;;;15.30;5.37;;;;;;;12.61;60.91;101464.45;1726290;80;25851;-63
2021/09/03 00:10:05;;;;;;;11.45;5.05;;;;;;;12.60;61.09;101458.66;1725485;81;26245;-63
2021/09/03 00:12:32;;;;;;;14.50;5.62;;;;;;;12.60;61.21;101453.75;1724366;81;27584;-64
2021/09/03 00:14:57;;;;;;;16.27;5.33;;;;;;;12.58;61.36;101448.42;1725430;81;27497;-64
2021/09/03 00:17:24;;;;;;;12.75;5.00;;;;;;;12.58;61.46;101447.55;1724880;81;25759;-63
2021/09/03 00:19:50;;;;;;;12.37;5.35;;;;;;;12.59;61.62;101447.95;1751183;79;25866;-63
2021/09/03 00:22:17;;;;;;;17.60;6.12;;;;;;;12.60;61.71;101444.33;1764110;79;26236;-64
2021/09/03 00:24:44;;;;;;;12.25;4.60;;;;;;;12.58;61.81;101443.05;1800343;78;25715;-64
2021/09/03 00:27:10;;;;;;;12.43;5.28;;;;;;;12.55;61.93;101439.12;1793301;78;29512;-63
2021/09/03 00:29:36;;;;;;;15.25;4.45;;;;;;;12.54;62.05;101433.34;1801114;78;25716;-63
2021/09/03 00:32:03;;;;;;;12.35;5.03;;;;;;;12.55;62.20;101441.82;1782116;78;26386;-63
2021/09/03 00:34:29;;;;;;;10.28;5.03;;;;;;;12.56;62.29;101438.20;1785049;78;25776;-63
2021/09/03 00:36:56;;;;;;;9.73;4.12;;;;;;;12.57;62.36;101438.60;1797219;78;25872;-63
2021/09/03 00:39:22;;;;;;;11.65;4.70;;;;;;;12.58;62.44;101439.48;1787476;78;27510;-63
2021/09/03 00:41:48;;;;;;;14.60;5.10;;;;;;;12.57;62.53;101431.00;1787947;78;25855;-63
2021/09/03 00:44:14;;;;;;;15.05;5.45;;;;;;;12.57;62.59;101425.62;1787223;78;25767;-63
2021/09/03 00:46:40;;;;;;;11.35;5.58;;;;;;;12.54;62.66;101426.63;1786051;78;25798;-63
2021/09/03 00:49:06;;;;;;;15.48;5.33;;;;;;;12.52;62.78;101424.46;1775296;78;25778;-64
2021/09/03 00:51:32;;;;;;;17.27;7.20;;;;;;;12.50;62.85;101424.11;1789073;78;27491;-63
2021/09/03 00:53:58;;;;;;;20.00;8.43;;;;;;;12.46;62.93;101417.98;1780164;78;25817;-64
2021/09/03 00:56:24;;;;;;;20.70;8.13;;;;;;;12.44;63.02;101415.81;1786296;78;26072;-63
2021/09/03 00:58:50;;;;;;;23.25;6.60;;;;;;;12.39;63.14;101405.70;1774488;78;25802;-63
2021/09/03 01:01:17;;;;;;;18.80;6.80;;;;;;;12.37;63.23;101403.55;1786299;78;25828;-64
2021/09/03 01:03:44;;;;;;;19.20;7.17;;;;;;;12.31;63.35;101400.63;1786135;78;27490;-63
2021/09/03 01:06:10;;;;;;;18.95;6.12;;;;;;;12.29;63.51;101397.59;1786644;78;28210;-63
2021/09/03 01:08:36;;;;;;;11.90;5.83;;;;;;;12.28;63.62;101399.40;1785348;78;25828;-64
2021/09/03 01:11:02;;;;;;;11.43;5.92;;;;;;;12.25;63.72;101393.27;1786005;78;27877;-64
2021/09/03 01:13:28;;;;;;;16.93;5.53;;;;;;;12.23;63.83;101393.32;1786731;78;25693;-63
2021/09/03 01:15:54;;;;;;;18.12;5.42;;;;;;;12.17;63.82;101404.30;1784749;78;27512;-63
2021/09/03 01:18:20;;;;;;;12.80;6.25;;;;;;;12.09;63.87;101402.38;1786558;78;26276;-63
2021/09/03 01:20:47;;;;;;;10.05;4.97;;;;;;;12.00;64.03;101396.00;1766643;79;25697;-63
2021/09/03 01:23:16;;;;;;;9.20;4.50;;;;;;;11.94;64.07;101401.60;1761859;79;25805;-64
2021/09/03 01:25:42;;;;;;;8.00;4.33;;;;;;;11.88;64.25;101399.14;1786601;78;25827;-64
2021/09/03 01:28:09;;;;;;;8.48;3.95;;;;;;;11.81;64.39;101398.48;1790773;78;27481;-63
2021/09/03 01:30:35;;;;;;;9.38;4.55;;;;;;;11.78;64.59;101390.54;1785269;78;25739;-64
2021/09/03 01:33:01;;;;;;;9.25;4.72;;;;;;;11.77;64.60;101389.22;1762441;79;25936;-63
2021/09/03 01:35:27;;;;;;;9.08;4.15;;;;;;;11.71;64.63;101382.27;1781098;78;25756;-63
2021/09/03 01:37:53;;;;;;;12.28;5.25;;;;;;;11.69;64.76;101385.47;1788733;78;25828;-63
2021/09/03 01:40:19;;;;;;;14.47;4.15;;;;;;;11.65;64.95;101379.80;1786750;78;27480;-63
2021/09/03 01:42:44;;;;;;;9.38;5.03;;;;;;;11.63;65.05;101377.63;1794304;78;25859;-64
2021/09/03 01:45:11;;;;;;;12.58;5.12;;;;;;;11.63;65.16;101374.95;1785298;78;25774;-63
2021/09/03 01:47:37;;;;;;;8.48;3.92;;;;;;;11.62;65.29;101374.54;1792623;78;25759;-64
2021/09/03 01:50:05;;;;;;;11.50;5.10;;;;;;;11.61;65.34;101370.97;1786477;78;25757;-63
2021/09/03 01:52:31;;;;;;;7.72;4.58;;;;;;;11.59;65.40;101367.47;1739178;79;27425;-63
2021/09/03 01:54:57;;;;;;;11.63;4.78;;;;;;;11.59;65.52;101365.25;1799776;78;26150;-63
2021/09/03 01:57:23;;;;;;;10.75;4.60;;;;;;;11.58;65.62;101366.18;1785892;78;25716;-63
2021/09/03 01:59:49;;;;;;;9.18;4.58;;;;;;;11.56;65.67;101359.52;1747479;79;25836;-64
2021/09/03 02:02:15;;;;;;;14.83;5.58;;;;;;;11.56;65.74;101355.96;1789510;78;25336;-64
2021/09/03 02:04:42;;;;;;;12.50;5.10;;;;;;;11.52;65.70;101361.03;1795739;78;27471;-64
2021/09/03 02:07:08;;;;;;;10.00;4.80;;;;;;;11.49;65.86;101354.43;1791503;78;25734;-63
2021/09/03 02:09:34;;;;;;;11.83;4.85;;;;;;;11.48;65.97;101361.61;1789283;78;25760;-64
2021/09/03 02:12:00;;;;;;;11.00;4.75;;;;;;;11.48;66.03;101357.58;1789666;78;25812;-63
2021/09/03 02:14:26;;;;;;;9.20;4.75;;;;;;;11.49;66.14;101357.98;1786749;78;25885;-64
2021/09/03 02:16:51;;;;;;;13.13;5.20;;;;;;;11.49;66.18;101351.28;1789898;78;27507;-63
2021/09/03 02:19:17;;;;;;;10.58;4.87;;;;;;;11.49;66.27;101348.59;1781323;78;26783;-63
2021/09/03 02:21:43;;;;;;;8.58;4.50;;;;;;;11.49;66.31;101345.03;1780842;78;25777;-64
2021/09/03 02:24:09;;;;;;;9.13;4.37;;;;;;;11.49;66.36;101345.03;1787968;78;27936;-63
2021/09/03 02:26:35;;;;;;;19.90;5.80;;;;;;;11.48;66.42;101345.50;1800704;78;25387;-63
2021/09/03 02:29:01;;;;;;;8.95;4.50;;;;;;;11.49;66.48;101334.30;1777599;78;27523;-64
2021/09/03 02:31:27;;;;;;;9.30;4.87;;;;;;;11.48;66.53;101333.42;1793333;78;25798;-63
2021/09/03 02:33:53;;;;;;;10.28;4.58;;;;;;;11.49;66.62;101335.64;1788503;78;25942;-63
2021/09/03 02:36:19;;;;;;;6.47;4.40;;;;;;;11.49;66.65;101327.58;1787884;78;25784;-63
2021/09/03 02:38:45;;;;;;;10.55;5.03;;;;;;;11.49;66.72;101328.45;1782805;78;25838;-64
2021/09/03 02:41:11;;;;;;;9.05;4.50;;;;;;;11.49;66.74;101323.55;1777336;78;26676;-63
2021/09/03 02:43:37;;;;;;;12.53;5.03;;;;;;;11.49;66.80;101326.23;1783143;78;25971;-63
2021/09/03 02:46:03;;;;;;;12.73;6.97;;;;;;;11.49;66.85;101319.53;1796618;78;26123;-64
2021/09/03 02:48:30;;;;;;;15.95;8.40;;;;;;;11.49;66.90;101319.53;1797527;78;26482;-63
2021/09/03 02:50:56;;;;;;;16.52;9.40;;;;;;;11.48;66.95;101311.06;1790721;78;25788;-63
2021/09/03 02:53:22;;;;;;;16.93;9.73;;;;;;;11.50;67.02;101306.52;1784064;78;27432;-63
2021/09/03 02:55:48;;;;;;;14.75;7.72;;;;;;;11.48;67.04;101306.57;1788751;78;25825;-64
2021/09/03 02:58:14;;;;;;;11.55;6.97;;;;;;;11.48;67.08;101309.72;1783827;78;25699;-63
2021/09/03 03:00:40;;;;;;;18.95;6.50;;;;;;;11.45;67.09;101304.00;1787019;78;25815;-63
2021/09/03 03:03:07;;;;;;;12.68;6.55;;;;;;;11.43;67.18;101303.64;1788916;78;25753;-64
2021/09/03 03:05:34;;;;;;;10.80;6.60;;;;;;;11.42;67.26;101300.55;1749885;79;27459;-65
2021/09/03 03:08:00;;;;;;;12.73;5.72;;;;;;;11.41;67.26;101296.99;1783639;78;25729;-63
2021/09/03 03:10:26;;;;;;;15.78;5.83;;;;;;;11.39;67.30;101297.52;1796518;78;25831;-64
2021/09/03 03:12:54;;;;;;;10.60;5.50;;;;;;;11.36;67.37;101300.30;1736033;81;26650;-64
2021/09/03 03:15:23;;;;;;;8.38;4.47;;;;;;;11.34;67.46;101285.59;1788701;78;25652;-64
2021/09/03 03:17:51;;;;;;;11.05;5.42;;;;;;;11.35;67.51;101283.33;1788591;78;27431;-63
2021/09/03 03:20:18;;;;;;;12.98;5.22;;;;;;;11.35;67.58;101287.35;1789577;78;26519;-63
2021/09/03 03:22:46;;;;;;;9.40;4.97;;;;;;;11.35;67.60;101280.64;1798307;78;26353;-64
2021/09/03 03:25:13;;;;;;;13.13;5.28;;;;;;;11.33;67.65;101277.14;1788320;78;25790;-64
2021/09/03 03:27:40;;;;;;;13.05;6.00;;;;;;;11.32;67.70;101270.02;1778548;78;26115;-63
2021/09/03 03:30:08;;;;;;;9.40;5.25;;;;;;;11.32;67.73;101279.41;1795474;78;27455;-64
2021/09/03 03:32:34;;;;;;;9.18;4.92;;;;;;;11.30;67.85;101267.86;1749439;79;25804;-64
2021/09/03 03:35:01;;;;;;;13.35;5.75;;;;;;;11.30;67.90;101269.20;1784431;78;25840;-64
2021/09/03 03:37:27;;;;;;;10.10;4.92;;;;;;;11.28;67.90;101268.38;1763985;79;27015;-63
2021/09/03 03:39:53;;;;;;;10.53;5.62;;;;;;;11.26;67.97;101267.56;1758565;79;25920;-64
2021/09/03 03:42:19;;;;;;;11.55;5.37;;;;;;;11.24;68.04;101263.17;1766222;79;29721;-64
2021/09/03 03:44:45;;;;;;;9.93;5.55;;;;;;;11.22;68.07;101267.26;1761732;79;25836;-64
2021/09/03 03:47:11;;;;;;;10.32;5.70;;;;;;;11.20;68.11;101266.44;1762600;79;25781;-63
2021/09/03 03:49:37;;;;;;;11.90;5.90;;;;;;;11.17;68.21;101263.86;1762673;79;25821;-63
2021/09/03 03:52:03;;;;;;;13.65;5.50;;;;;;;11.14;68.28;101265.31;1762730;79;26421;-63
2021/09/03 03:54:29;;;;;;;12.98;5.67;;;;;;;11.10;68.28;101263.67;1762604;79;26979;-63
2021/09/03 03:56:56;;;;;;;14.43;6.33;;;;;;;11.07;68.41;101263.78;1762100;79;25874;-63
2021/09/03 03:59:21;;;;;;;11.63;5.47;;;;;;;11.03;68.37;101260.80;1762540;80;25885;-64
2021/09/03 04:01:47;;;;;;;14.87;6.80;;;;;;;10.97;68.39;101255.65;1761343;79;25788;-63
2021/09/03 04:04:14;;;;;;;16.67;5.67;;;;;;;10.93;68.60;101247.30;1761772;79;26570;-63
2021/09/03 04:06:40;;;;;;;14.63;6.70;;;;;;;10.89;68.57;101251.89;1759507;80;27580;-63
2021/09/03 04:09:07;;;;;;;23.90;7.85;;;;;;;10.86;68.70;101249.78;1757634;80;25754;-63
2021/09/03 04:11:33;;;;;;;24.55;8.03;;;;;;;10.85;68.87;101250.71;1761890;79;25681;-64
2021/09/03 04:13:59;;;;;;;20.55;6.80;;;;;;;10.84;68.90;101247.16;1762418;79;25854;-63
2021/09/03 04:16:25;;;;;;;12.93;7.10;;;;;;;10.84;68.94;101239.58;1762692;79;25808;-64
2021/09/03 04:18:50;;;;;;;18.02;8.18;;;;;;;10.84;69.07;101247.16;1761964;79;27543;-64
2021/09/03 04:21:16;;;;;;;20.32;7.65;;;;;;;10.85;69.16;101239.98;1760100;79;25825;-64
2021/09/03 04:23:42;;;;;;;18.82;7.87;;;;;;;10.85;69.26;101237.30;1748983;80;25837;-63
2021/09/03 04:26:08;;;;;;;20.60;8.58;;;;;;;10.85;69.38;101234.16;1733912;80;26413;-63
2021/09/03 04:28:34;;;;;;;16.82;8.13;;;;;;;10.86;69.44;101237.25;1743419;80;25797;-63
2021/09/03 04:31:00;;;;;;;17.15;8.53;;;;;;;10.86;69.54;101233.69;1732982;80;27524;-63
2021/09/03 04:33:26;;;;;;;14.50;7.92;;;;;;;10.85;69.56;101222.09;1748902;80;25802;-63
2021/09/03 04:35:52;;;;;;;18.00;10.70;;;;;;;10.84;69.73;101222.14;1736951;80;25907;-63
2021/09/03 04:38:18;;;;;;;20.77;9.40;;;;;;;10.84;69.84;101217.66;1744792;81;25895;-63
2021/09/03 04:40:44;;;;;;;17.77;9.25;;;;;;;10.85;69.92;101219.87;1731551;81;25906;-63
2021/09/03 04:43:10;;;;;;;29.30;11.12;;;;;;;10.86;69.98;101220.28;1763277;79;29603;-64
2021/09/03 04:45:36;;;;;;;24.15;9.88;;;;;;;10.86;70.16;101222.50;1767361;79;25544;-63
2021/09/03 04:48:02;;;;;;;32.03;11.88;;;;;;;10.87;70.29;101225.59;1765781;79;26413;-63
2021/09/03 04:50:28;;;;;;;23.90;10.38;;;;;;;10.90;70.37;101225.95;1761337;79;25861;-63
2021/09/03 04:52:54;;;;;;;29.12;12.00;;;;;;;10.88;70.45;101225.12;1750553;79;25371;-63
2021/09/03 04:55:20;;;;;;;31.55;11.28;;;;;;;10.88;70.65;101219.77;1761360;79;27468;-64
2021/09/03 04:57:46;;;;;;;31.00;12.40;;;;;;;10.88;70.78;101215.28;1759074;79;26173;-63
2021/09/03 05:00:17;;;;;;;31.25;12.88;;;;;;;10.90;70.92;101218.78;1758702;79;25302;-63
2021/09/03 05:02:43;;;;;;;40.17;13.43;;;;;;;10.92;70.94;101216.92;1763154;79;25797;-63
2021/09/03 05:05:10;;;;;;;36.40;13.98;;;;;;;10.92;71.08;101220.06;1765516;79;25756;-63
2021/09/03 05:07:36;;;;;;;63.08;14.95;;;;;;;10.91;71.24;101219.19;1766931;79;27512;-63
2021/09/03 05:10:05;;;;;;;55.78;15.48;;;;;;;10.87;71.41;101216.67;1761830;79;26054;-63
2021/09/03 05:12:31;;;;;;;66.75;16.23;;;;;;;10.81;71.72;101215.55;1762150;79;25912;-63
2021/09/03 05:14:58;;;;;;;52.83;15.25;;;;;;;10.78;72.02;101218.33;1756295;79;25984;-63
2021/09/03 05:17:24;;;;;;;44.48;14.18;;;;;;;10.73;72.19;101216.69;1766340;79;25717;-63
2021/09/03 05:19:50;;;;;;;58.90;15.58;;;;;;;10.71;72.69;101206.95;1763856;79;27495;-63
2021/09/03 05:22:16;;;;;;;54.77;15.50;;;;;;;10.67;72.99;101203.96;1750244;79;25749;-65
2021/09/03 05:24:42;;;;;;;99.58;15.98;;;;;;;10.67;73.30;101206.17;1765544;79;26048;-63
2021/09/03 05:27:08;;;;;;;72.00;16.55;;;;;;;10.67;73.63;101206.64;1775215;79;25854;-63
2021/09/03 05:29:34;;;;;;;68.60;15.63;;;;;;;10.69;73.90;101203.45;1765947;79;26420;-62
2021/09/03 05:32:00;;;;;;;80.05;15.83;;;;;;;10.74;74.12;101200.14;1764393;79;27525;-63
2021/09/03 05:34:26;;;;;;;66.05;15.30;;;;;;;10.78;74.28;101204.93;1763740;79;27224;-63
2021/09/03 05:36:52;;;;;;;71.30;16.52;;;;;;;10.81;74.55;101200.80;1784931;78;25767;-63
2021/09/03 05:39:18;;;;;;;96.32;18.55;;;;;;;10.86;74.70;101196.15;1787199;78;25832;-63
2021/09/03 05:41:44;;;;;;;52.17;16.82;;;;;;;10.91;74.93;101195.52;1790275;78;25462;-63
2021/09/03 05:44:09;;;;;;;60.10;18.30;;;;;;;10.94;75.08;101187.36;1780984;78;27517;-63
2021/09/03 05:46:35;;;;;;;56.48;18.92;;;;;;;10.99;75.26;101194.77;1798236;78;26321;-63
2021/09/03 05:49:01;;;;;;;63.63;20.30;;;;;;;11.05;75.38;101187.84;1786677;78;25869;-63
2021/09/03 05:51:27;;;;;;;51.10;19.37;;;;;;;11.13;75.56;101191.12;1783124;78;25956;-63
2021/09/03 05:53:53;;;;;;;56.02;19.77;;;;;;;11.20;75.78;101191.30;1788838;78;26554;-64
2021/09/03 05:56:19;;;;;;;58.85;21.87;;;;;;;11.28;75.91;101177.13;1790264;78;27509;-63
2021/09/03 05:58:45;;;;;;;40.67;19.10;;;;;;;11.36;75.98;101185.77;1785743;78;27308;-64
2021/09/03 06:01:11;;;;;;;47.62;18.67;;;;;;;11.46;76.03;101186.30;1791211;78;25865;-62
2021/09/03 06:03:36;;;;;;;49.85;19.90;;;;;;;11.56;76.16;101184.13;1788605;78;26438;-63
2021/09/03 06:06:02;;;;;;;52.48;20.43;;;;;;;11.61;76.15;101178.99;1789852;78;25754;-63
2021/09/03 06:08:28;;;;;;;40.73;18.48;;;;;;;11.70;76.25;101185.81;1787911;78;27542;-63
2021/09/03 06:10:54;;;;;;;46.53;17.95;;;;;;;11.82;76.69;101191.20;1787451;78;26520;-62
2021/09/03 06:13:20;;;;;;;37.93;17.60;;;;;;;11.88;76.75;101181.09;1765639;78;26266;-62
2021/09/03 06:15:46;;;;;;;44.80;18.35;;;;;;;11.97;76.81;101179.37;1778779;78;25832;-62
2021/09/03 06:18:13;;;;;;;43.48;19.67;;;;;;;12.09;76.91;101178.47;1788258;78;25746;-62
2021/09/03 06:20:39;;;;;;;36.45;17.42;;;;;;;12.19;76.99;101176.68;1782275;78;29680;-62
2021/09/03 06:23:05;;;;;;;37.35;19.45;;;;;;;12.27;77.28;101173.20;1783985;78;26276;-62
2021/09/03 06:25:31;;;;;;;41.08;16.80;;;;;;;12.33;77.39;101181.01;1779359;78;26297;-63
2021/09/03 06:27:57;;;;;;;37.10;18.37;;;;;;;12.43;77.80;101186.00;1769063;78;25821;-63
2021/09/03 06:30:23;;;;;;;39.10;18.02;;;;;;;12.47;77.88;101182.24;1789021;78;26129;-63
2021/09/03 06:32:49;;;;;;;37.38;17.67;;;;;;;12.52;78.01;101178.42;1786108;78;27442;-62
2021/09/03 06:35:14;;;;;;;30.20;16.12;;;;;;;12.61;77.97;101171.77;1777985;78;26445;-62
2021/09/03 06:37:42;;;;;;;32.60;17.75;;;;;;;12.70;77.97;101169.15;1800827;78;25854;-62
2021/09/03 06:40:09;;;;;;;39.55;16.62;;;;;;;12.80;78.05;101172.71;1782973;78;25822;-61
2021/09/03 06:42:36;;;;;;;36.95;16.12;;;;;;;12.87;78.19;101167.47;1794439;78;25718;-62
2021/09/03 06:45:03;;;;;;;37.78;16.52;;;;;;;12.97;78.06;101170.62;1790970;78;27471;-62
2021/09/03 06:47:30;;;;;;;35.98;17.05;;;;;;;13.04;78.05;101177.44;1791287;78;26606;-62
2021/09/03 06:49:56;;;;;;;35.13;17.77;;;;;;;13.10;78.01;101162.36;1788888;78;25799;-63
2021/09/03 06:52:28;;;;;;;34.65;15.50;;;;;;;13.23;78.10;101163.58;1787689;78;26515;-63
2021/09/03 06:54:53;;;;;;;36.95;17.55;;;;;;;13.33;77.99;101165.37;1785969;78;25758;-62
2021/09/03 06:57:19;;;;;;;33.08;15.85;;;;;;;13.45;78.00;101165.27;1785690;78;26619;-62
2021/09/03 06:59:45;;;;;;;31.68;14.95;;;;;;;13.55;78.01;101162.08;1782620;78;25925;-63
2021/09/03 07:02:12;;;;;;;32.28;16.32;;;;;;;13.66;77.79;101157.52;1777568;78;25975;-62
2021/09/03 07:04:38;;;;;;;31.68;15.28;;;;;;;13.77;77.75;101173.17;1780354;78;25806;-65
2021/09/03 07:07:04;;;;;;;32.85;14.47;;;;;;;13.93;77.75;101167.44;1780164;78;25822;-63
2021/09/03 07:09:30;;;;;;;31.25;14.83;;;;;;;14.06;77.72;101180.72;1792495;78;27420;-63
2021/09/03 07:11:56;;;;;;;31.07;15.05;;;;;;;14.22;77.65;101182.18;1784651;78;26433;-63
2021/09/03 07:14:22;;;;;;;33.53;15.03;;;;;;;14.33;77.53;101173.08;1782351;78;26497;-63
2021/09/03 07:16:47;;;;;;;31.23;13.78;;;;;;;14.47;77.50;101177.33;1783786;78;25861;-63
2021/09/03 07:19:16;;;;;;;34.10;15.28;;;;;;;14.61;77.34;101183.37;1781606;78;25717;-63
2021/09/03 07:21:43;;;;;;;27.42;14.73;;;;;;;14.77;77.19;101183.45;1784783;78;27550;-63
2021/09/03 07:24:09;;;;;;;28.98;13.88;;;;;;;14.91;77.09;101199.80;1795990;78;25713;-63
2021/09/03 07:26:35;;;;;;;30.52;14.75;;;;;;;15.02;76.80;101182.55;1791250;78;25893;-63
2021/09/03 07:29:04;;;;;;;29.55;14.10;;;;;;;15.11;76.57;101188.81;1787125;78;25878;-64
2021/09/03 07:31:32;;;;;;;29.02;15.10;;;;;;;15.23;76.41;101195.38;1792892;78;25745;-64
2021/09/03 07:33:58;;;;;;;47.78;16.00;;;;;;;15.31;76.17;101182.81;1782909;78;28182;-62
2021/09/03 07:36:24;;;;;;;25.88;13.62;;;;;;;15.36;75.94;101178.03;1785207;78;25688;-64
2021/09/03 07:38:50;;;;;;;26.68;13.88;;;;;;;15.41;75.84;101184.93;1772066;78;26464;-65
2021/09/03 07:41:15;;;;;;;26.40;13.20;;;;;;;15.46;75.53;101172.52;1780563;78;25813;-65
2021/09/03 07:43:42;;;;;;;33.00;13.48;;;;;;;15.46;75.38;101174.74;1784021;78;25765;-65
2021/09/03 07:46:08;;;;;;;28.47;13.28;;;;;;;15.53;75.29;101168.05;1772914;78;27528;-64
2021/09/03 07:48:34;;;;;;;29.05;14.03;;;;;;;15.64;75.16;101167.92;1787747;78;25784;-65
2021/09/03 07:51:01;;;;;;;30.65;14.33;;;;;;;15.73;74.80;101185.84;1780748;78;26465;-67
2021/09/03 07:53:27;;;;;;;28.40;12.40;;;;;;;15.75;74.69;101158.25;1778350;78;27918;-64
2021/09/03 07:55:53;;;;;;;38.53;13.65;;;;;;;15.83;74.27;101167.28;1788926;78;25959;-64
2021/09/03 07:58:19;;;;;;;31.82;13.40;;;;;;;15.84;74.13;101147.40;1783874;78;27486;-64
2021/09/03 08:00:45;;;;;;;28.38;12.10;;;;;;;15.89;73.65;101152.94;1786791;78;25793;-64
2021/09/03 08:03:10;;;;;;;30.12;12.85;;;;;;;15.93;73.04;101132.48;1780588;78;25885;-63
2021/09/03 08:05:36;;;;;;;34.73;12.37;;;;;;;15.97;73.07;101137.63;1783513;78;25865;-64
2021/09/03 08:08:05;;;;;;;25.37;11.68;;;;;;;16.03;72.76;101131.86;1787629;78;26133;-64
2021/09/03 08:10:32;;;;;;;33.53;12.35;;;;;;;16.14;72.74;101137.99;1785577;78;28081;-65
2021/09/03 08:13:04;;;;;;;28.52;12.10;;;;;;;16.20;72.21;101130.88;1780545;78;26168;-64
2021/09/03 08:15:31;;;;;;;;;;;;;;;16.24;72.15;101140.55;1788809;78;25764;-64
2021/09/03 08:17:57;;;;;;;25.65;11.15;;;;;;;16.24;71.76;101145.48;1788648;78;25872;-64
2021/09/03 08:20:24;;;;;;;20.43;12.20;;;;;;;16.24;71.58;101139.20;1784281;78;25304;-64
2021/09/03 08:22:51;;;;;;;23.42;11.78;;;;;;;16.27;71.31;101130.03;1778609;78;28910;-64
2021/09/03 08:25:19;;;;;;;24.92;11.28;;;;;;;16.34;71.12;101122.81;1790293;78;26003;-62
2021/09/03 08:27:48;;;;;;;27.95;13.18;;;;;;;16.35;70.89;101126.39;1796453;78;25925;-63
2021/09/03 08:30:15;;;;;;;24.70;11.93;;;;;;;16.40;70.86;101117.03;1779729;78;26581;-62
2021/09/03 08:32:42;;;;;;;21.70;11.57;;;;;;;16.51;70.46;101117.73;1787625;78;25776;-62
2021/09/03 08:35:09;;;;;;;18.67;9.90;;;;;;;16.56;70.52;101127.32;1787490;78;28349;-62
2021/09/03 08:37:35;;;;;;;33.15;11.35;;;;;;;16.67;70.49;101116.36;1787366;78;27123;-63
2021/09/03 08:40:02;;;;;;;21.40;10.75;;;;;;;16.74;70.07;101117.73;1786953;78;25726;-63
2021/09/03 08:42:28;;;;;;;18.85;10.48;;;;;;;16.74;70.08;101120.44;1785484;78;27827;-64
2021/09/03 08:44:56;;;;;;;26.05;10.93;;;;;;;16.82;69.68;101123.05;1787922;78;26548;-63
2021/09/03 08:47:22;;;;;;;25.00;11.25;;;;;;;16.84;69.47;101113.48;1788648;78;27483;-63
2021/09/03 08:49:50;;;;;;;20.27;10.90;;;;;;;16.83;68.95;101095.50;1787833;78;25638;-63
2021/09/03 08:52:18;;;;;;;29.67;13.22;;;;;;;16.84;68.91;101098.59;1788788;78;25866;-63
2021/09/03 08:54:45;;;;;;;24.50;11.30;;;;;;;16.88;68.81;101095.60;1784810;78;25862;-63
2021/09/03 08:57:13;;;;;;;28.55;12.05;;;;;;;16.93;68.67;101097.16;1788055;78;26215;-64
2021/09/03 08:59:41;;;;;;;22.42;10.90;;;;;;;16.92;68.46;101088.16;1789064;78;27548;-63
2021/09/03 09:02:15;;;;;;;31.95;11.08;;;;;;;17.03;68.21;101090.19;1788499;78;26114;-64
2021/09/03 09:04:44;;;;;;;38.13;11.28;;;;;;;17.12;68.19;101097.73;1781974;78;25907;-64
2021/09/03 09:07:12;;;;;;;26.57;11.48;;;;;;;17.20;68.12;101091.34;1782093;78;25776;-64
2021/09/03 09:09:49;;;;;;;22.00;10.70;;;;;;;17.23;67.75;101101.98;1786169;78;26035;-64
2021/09/03 09:12:19;;;;;;;29.18;10.68;;;;;;;17.31;67.99;101105.08;1783883;78;27551;-64
2021/09/03 09:15:07;;;;;;;25.70;10.88;;;;;;;17.38;67.48;101087.94;1784917;78;25758;-64
2021/09/03 09:17:41;;;;;;;26.50;11.40;;;;;;;17.47;67.52;101087.34;1784752;78;26220;-64
2021/09/03 09:20:14;;;;;;;27.65;10.95;;;;;;;17.57;67.39;101088.48;1787369;78;26292;-62
2021/09/03 09:22:57;;;;;;;23.27;10.23;;;;;;;17.66;67.34;101081.14;1773972;78;26334;-64
2021/09/03 09:25:29;;;;;;;24.98;11.88;;;;;;;17.73;67.32;101078.89;1780037;78;27457;-63
2021/09/03 09:28:20;;;;;;;22.05;10.72;;;;;;;17.73;66.86;101063.98;1784682;78;25670;-62
2021/09/03 09:30:47;;;;;;;26.27;9.33;;;;;;;17.64;66.47;101069.98;1783846;78;25757;-64
2021/09/03 09:33:20;;;;;;;26.00;10.50;;;;;;;17.50;66.17;101087.15;1787214;78;25826;-61
2021/09/03 09:35:56;;;;;;;25.88;12.53;;;;;;;17.39;66.16;101057.16;1781499;78;25808;-64
2021/09/03 09:38:26;;;;;;;25.00;10.35;;;;;;;17.37;65.97;101076.23;1781870;78;29588;-64
2021/09/03 09:40:59;;;;;;;27.48;10.10;;;;;;;17.32;66.06;101051.27;1773708;78;26414;-62
2021/09/03 09:43:41;;;;;;;30.45;11.18;;;;;;;17.36;66.22;101043.81;1779351;78;25777;-62
2021/09/03 09:46:16;;;;;;;24.05;10.98;;;;;;;17.40;66.28;101042.16;1789457;78;26273;-62
2021/09/03 09:48:53;;;;;;;42.73;10.80;;;;;;;17.50;66.04;101046.01;1788946;78;26221;-63
2021/09/03 09:51:28;;;;;;;21.85;10.58;;;;;;;17.53;65.71;101038.16;1783636;78;26666;-63
2021/09/03 09:54:20;;;;;;;19.55;10.23;;;;;;;17.50;65.77;101040.59;1788101;78;26152;-63
2021/09/03 09:57:02;;;;;;;20.05;9.53;;;;;;;17.52;65.52;101040.48;1781217;78;25808;-64
2021/09/03 09:59:31;;;;;;;28.83;10.70;;;;;;;17.56;65.72;101036.60;1787269;78;26437;-63
2021/09/03 10:02:02;;;;;;;28.65;10.40;;;;;;;17.69;65.58;101043.47;1789878;78;26898;-63
2021/09/03 10:04:31;;;;;;;26.93;10.58;;;;;;;17.76;65.75;101025.33;1788899;78;27527;-64
2021/09/03 10:07:00;;;;;;;21.33;9.28;;;;;;;17.83;65.42;101019.02;1794380;78;25831;-64
2021/09/03 10:09:32;;;;;;;27.42;9.58;;;;;;;17.86;65.60;101018.80;1790902;78;25726;-63
2021/09/03 10:12:00;;;;;;;26.20;11.00;;;;;;;17.95;65.49;101009.17;1780983;78;25755;-63
2021/09/03 10:14:31;;;;;;;14.23;9.00;;;;;;;18.03;65.28;101015.81;1794172;78;25742;-63
2021/09/03 10:16:58;;;;;;;17.07;9.50;;;;;;;18.12;64.76;101023.81;1788668;78;33578;-63
2021/09/03 10:19:28;;;;;;;19.55;9.08;;;;;;;18.12;64.80;101002.10;1787512;78;25797;-63
2021/09/03 10:22:07;;;;;;;19.90;10.20;;;;;;;18.21;64.54;101017.71;1780150;78;25740;-63
2021/09/03 10:24:36;;;;;;;21.07;10.18;;;;;;;18.25;64.23;101018.38;1785567;78;25874;-63
2021/09/03 10:27:05;;;;;;;26.27;10.43;;;;;;;18.32;64.36;101011.54;1787801;78;25785;-63
2021/09/03 10:29:40;;;;;;;19.02;10.30;;;;;;;18.39;64.14;101007.42;1799778;78;28100;-62
2021/09/03 10:32:11;;;;;;;20.20;9.00;;;;;;;18.47;64.10;101007.27;1784771;78;25962;-63
2021/09/03 10:34:50;;;;;;;20.05;9.08;;;;;;;18.52;63.73;100995.21;1783708;78;25787;-63
2021/09/03 10:37:18;;;;;;;21.37;9.18;;;;;;;18.56;63.36;100984.52;1782276;78;25902;-63
2021/09/03 10:40:09;;;;;;;20.08;9.48;;;;;;;18.65;63.48;100979.82;1785884;78;25720;-63
2021/09/03 10:42:45;;;;;;;19.52;8.85;;;;;;;18.80;63.14;100997.73;1789746;78;27541;-63
2021/09/03 10:45:24;;;;;;;24.87;9.93;;;;;;;18.94;63.36;100973.64;1787822;78;26299;-62
2021/09/03 10:48:11;;;;;;;19.48;8.70;;;;;;;19.05;62.72;100980.03;1769061;79;25853;-62
2021/09/03 10:50:56;;;;;;;18.40;8.33;;;;;;;18.99;62.43;100980.48;1807582;77;26422;-62
2021/09/03 10:53:37;;;;;;;18.55;8.50;;;;;;;19.10;62.08;100980.56;1815104;77;25723;-62
2021/09/03 10:56:23;;;;;;;14.60;7.95;;;;;;;19.20;62.09;100990.75;1804735;77;27079;-62
2021/09/03 10:59:06;;;;;;;106.67;21.55;;;;;;;19.19;61.52;100971.35;1815669;77;27104;-63
2021/09/03 11:01:36;;;;;;;25.25;10.08;;;;;;;19.26;61.72;100972.63;1813505;77;25908;-63
2021/09/03 11:04:15;;;;;;;27.07;9.60;;;;;;;19.34;61.35;100969.72;1813591;77;26362;-63
2021/09/03 11:06:55;;;;;;;28.92;7.87;;;;;;;19.49;61.46;100977.70;1808630;77;25762;-63
2021/09/03 11:09:25;;;;;;;21.35;7.55;;;;;;;19.60;60.98;100971.00;1806132;77;27322;-63
2021/09/03 11:11:56;;;;;;;16.73;8.87;;;;;;;19.64;60.90;100954.34;1815669;77;25768;-64
2021/09/03 11:14:27;;;;;;;17.02;8.25;;;;;;;19.76;60.58;100951.17;1807813;77;25745;-64
2021/09/03 11:16:59;;;;;;;;;;;;;;;19.89;60.56;100949.73;1806532;77;26522;-62